sensor_id;sensor_type;location;lat;lon;timestamp;temperature;humidity
10536;DHT22;5316;49.538;8.352;2023-07-13T00:02:15;20.00;43.00
10536;DHT22;5316;49.538;8.352;2023-07-13T00:04:42;20.00;99.90
10536;DHT22;5316;49.538;8.352;2023-07-13T00:07:09;20.00;99.90
10536;DHT22;5316;49.538;8.352;2023-07-13T00:09:36;19.90;99.90
10536;DHT22;5316;49.538;8.352;2023-07-13T00:12:03;19.80;99.90
10536;DHT22;5316;49.538;8.352;2023-07-13T00:14:51;19.80;99.90
10536;DHT22;5316;49.538;8.352;2023-07-13T00:17:35;19.80;99.90
10536;DHT22;5316;49.538;8.352;2023-07-13T00:20:05;19.80;99.90
10536;DHT22;5316;49.538;8.352;2023-07-13T00:22:32;19.90;83.60
10536;DHT22;5316;49.538;8.352;2023-07-13T00:24:59;19.90;1.00
10536;DHT22;5316;49.538;8.352;2023-07-13T00:27:26;19.90;1.00
10536;DHT22;5316;49.538;8.352;2023-07-13T00:29:55;19.90;1.00
10536;DHT22;5316;49.538;8.352;2023-07-13T00:32:23;19.90;1.00
10536;DHT22;5316;49.538;8.352;2023-07-13T00:34:54;19.90;1.00
10536;DHT22;5316;49.538;8.352;2023-07-13T00:37:24;19.90;1.00
10536;DHT22;5316;49.538;8.352;2023-07-13T00:39:52;19.80;99.90
10536;DHT22;5316;49.538;8.352;2023-07-13T00:42:22;19.70;99.90
10536;DHT22;5316;49.538;8.352;2023-07-13T00:45:04;19.70;99.90
10536;DHT22;5316;49.538;8.352;2023-07-13T00:47:37;19.70;99.90
10536;DHT22;5316;49.538;8.352;2023-07-13T00:50:10;19.50;1.00
10536;DHT22;5316;49.538;8.352;2023-07-13T00:52:43;19.50;5.00
10536;DHT22;5316;49.538;8.352;2023-07-13T00:55:11;19.30;99.90
10536;DHT22;5316;49.538;8.352;2023-07-13T00:57:41;19.20;1.00
10536;DHT22;5316;49.538;8.352;2023-07-13T01:00:11;19.10;99.90
10536;DHT22;5316;49.538;8.352;2023-07-13T01:02:41;19.00;99.90
10536;DHT22;5316;49.538;8.352;2023-07-13T01:05:12;19.00;1.00
10536;DHT22;5316;49.538;8.352;2023-07-13T01:07:40;18.90;1.00
10536;DHT22;5316;49.538;8.352;2023-07-13T01:10:10;18.90;1.00
10536;DHT22;5316;49.538;8.352;2023-07-13T01:12:41;18.90;1.00
10536;DHT22;5316;49.538;8.352;2023-07-13T01:15:36;18.80;1.00
10536;DHT22;5316;49.538;8.352;2023-07-13T01:18:05;18.80;1.00
10536;DHT22;5316;49.538;8.352;2023-07-13T01:20:53;18.80;4.60
10536;DHT22;5316;49.538;8.352;2023-07-13T01:23:22;18.80;1.00
10536;DHT22;5316;49.538;8.352;2023-07-13T01:25:51;18.90;1.00
10536;DHT22;5316;49.538;8.352;2023-07-13T01:28:19;18.80;1.00
10536;DHT22;5316;49.538;8.352;2023-07-13T01:30:46;18.80;1.00
10536;DHT22;5316;49.538;8.352;2023-07-13T01:33:17;18.80;1.00
10536;DHT22;5316;49.538;8.352;2023-07-13T01:35:45;18.80;1.00
10536;DHT22;5316;49.538;8.352;2023-07-13T01:38:15;18.70;43.20
10536;DHT22;5316;49.538;8.352;2023-07-13T01:40:43;18.70;99.90
10536;DHT22;5316;49.538;8.352;2023-07-13T01:43:10;18.60;1.00
10536;DHT22;5316;49.538;8.352;2023-07-13T01:45:39;18.50;9.10
10536;DHT22;5316;49.538;8.352;2023-07-13T01:48:06;18.50;99.90
10536;DHT22;5316;49.538;8.352;2023-07-13T01:50:35;18.30;1.00
10536;DHT22;5316;49.538;8.352;2023-07-13T01:53:02;18.30;13.00
10536;DHT22;5316;49.538;8.352;2023-07-13T01:55:46;18.30;99.90
10536;DHT22;5316;49.538;8.352;2023-07-13T01:58:13;18.20;99.90
10536;DHT22;5316;49.538;8.352;2023-07-13T02:00:40;18.20;99.90
10536;DHT22;5316;49.538;8.352;2023-07-13T02:03:07;18.30;1.00
10536;DHT22;5316;49.538;8.352;2023-07-13T02:05:34;18.50;99.90
10536;DHT22;5316;49.538;8.352;2023-07-13T02:08:02;18.40;1.00
10536;DHT22;5316;49.538;8.352;2023-07-13T02:10:29;18.40;1.00
10536;DHT22;5316;49.538;8.352;2023-07-13T02:12:57;18.50;99.90
10536;DHT22;5316;49.538;8.352;2023-07-13T02:15:24;18.40;1.00
10536;DHT22;5316;49.538;8.352;2023-07-13T02:18:13;18.40;1.00
10536;DHT22;5316;49.538;8.352;2023-07-13T02:20:42;18.40;1.00
10536;DHT22;5316;49.538;8.352;2023-07-13T02:23:10;18.40;1.00
10536;DHT22;5316;49.538;8.352;2023-07-13T02:26:03;18.30;9.70
10536;DHT22;5316;49.538;8.352;2023-07-13T02:28:50;18.20;99.90
10536;DHT22;5316;49.538;8.352;2023-07-13T02:31:18;18.10;1.00
10536;DHT22;5316;49.538;8.352;2023-07-13T02:33:46;18.10;1.00
10536;DHT22;5316;49.538;8.352;2023-07-13T02:36:14;18.10;61.40
10536;DHT22;5316;49.538;8.352;2023-07-13T02:38:42;18.00;99.90
10536;DHT22;5316;49.538;8.352;2023-07-13T02:41:10;18.10;99.90
10536;DHT22;5316;49.538;8.352;2023-07-13T02:43:38;18.00;1.00
10536;DHT22;5316;49.538;8.352;2023-07-13T02:46:06;17.90;1.00
10536;DHT22;5316;49.538;8.352;2023-07-13T02:48:33;17.90;1.00
10536;DHT22;5316;49.538;8.352;2023-07-13T02:51:01;17.90;99.90
10536;DHT22;5316;49.538;8.352;2023-07-13T02:53:28;17.90;99.90
10536;DHT22;5316;49.538;8.352;2023-07-13T02:55:55;17.90;99.90
10536;DHT22;5316;49.538;8.352;2023-07-13T02:58:22;17.90;1.00
10536;DHT22;5316;49.538;8.352;2023-07-13T03:00:49;17.90;81.60
10536;DHT22;5316;49.538;8.352;2023-07-13T03:03:33;17.90;37.70
10536;DHT22;5316;49.538;8.352;2023-07-13T03:06:03;17.90;99.90
10536;DHT22;5316;49.538;8.352;2023-07-13T03:08:31;17.90;99.90
10536;DHT22;5316;49.538;8.352;2023-07-13T03:11:00;17.80;99.90
10536;DHT22;5316;49.538;8.352;2023-07-13T03:13:48;17.80;99.90
10536;DHT22;5316;49.538;8.352;2023-07-13T03:16:31;17.80;1.00
10536;DHT22;5316;49.538;8.352;2023-07-13T03:22:21;17.90;1.00
10536;DHT22;5316;49.538;8.352;2023-07-13T03:24:48;17.90;1.00
10536;DHT22;5316;49.538;8.352;2023-07-13T03:27:15;17.80;1.00
10536;DHT22;5316;49.538;8.352;2023-07-13T03:29:42;17.80;1.00
10536;DHT22;5316;49.538;8.352;2023-07-13T03:32:09;17.70;1.00
10536;DHT22;5316;49.538;8.352;2023-07-13T03:34:39;17.70;67.50
10536;DHT22;5316;49.538;8.352;2023-07-13T03:37:07;17.60;99.90
10536;DHT22;5316;49.538;8.352;2023-07-13T03:39:35;17.60;99.90
10536;DHT22;5316;49.538;8.352;2023-07-13T03:42:20;17.60;99.90
10536;DHT22;5316;49.538;8.352;2023-07-13T03:44:47;17.50;99.90
10536;DHT22;5316;49.538;8.352;2023-07-13T03:47:33;17.50;99.90
10536;DHT22;5316;49.538;8.352;2023-07-13T03:50:18;17.50;99.90
10536;DHT22;5316;49.538;8.352;2023-07-13T03:52:50;17.50;99.90
10536;DHT22;5316;49.538;8.352;2023-07-13T03:55:19;17.40;99.90
10536;DHT22;5316;49.538;8.352;2023-07-13T03:57:45;17.40;99.90
10536;DHT22;5316;49.538;8.352;2023-07-13T04:00:14;17.40;1.00
10536;DHT22;5316;49.538;8.352;2023-07-13T04:26:19;17.30;1.00
10536;DHT22;5316;49.538;8.352;2023-07-13T04:32:58;17.40;1.00
10536;DHT22;5316;49.538;8.352;2023-07-13T04:35:57;17.60;1.00
10536;DHT22;5316;49.538;8.352;2023-07-13T04:41:34;17.70;99.90
10536;DHT22;5316;49.538;8.352;2023-07-13T04:44:01;17.70;99.90
10536;DHT22;5316;49.538;8.352;2023-07-13T04:46:29;17.80;99.90
10536;DHT22;5316;49.538;8.352;2023-07-13T04:48:56;17.90;99.90
10536;DHT22;5316;49.538;8.352;2023-07-13T04:51:24;17.90;1.00
10536;DHT22;5316;49.538;8.352;2023-07-13T04:53:52;17.90;1.00
10536;DHT22;5316;49.538;8.352;2023-07-13T04:56:19;17.80;99.90
10536;DHT22;5316;49.538;8.352;2023-07-13T04:58:48;17.80;38.50
10536;DHT22;5316;49.538;8.352;2023-07-13T05:01:15;17.90;1.00
10536;DHT22;5316;49.538;8.352;2023-07-13T05:03:42;17.90;1.00
10536;DHT22;5316;49.538;8.352;2023-07-13T05:06:10;17.90;99.90
10536;DHT22;5316;49.538;8.352;2023-07-13T05:08:37;18.00;1.00
10536;DHT22;5316;49.538;8.352;2023-07-13T05:11:05;18.10;99.90
10536;DHT22;5316;49.538;8.352;2023-07-13T05:13:32;18.10;99.90
10536;DHT22;5316;49.538;8.352;2023-07-13T05:16:03;18.00;99.90
10536;DHT22;5316;49.538;8.352;2023-07-13T05:18:31;18.00;1.00
10536;DHT22;5316;49.538;8.352;2023-07-13T05:21:01;18.00;1.00
10536;DHT22;5316;49.538;8.352;2023-07-13T05:23:29;17.90;1.00
10536;DHT22;5316;49.538;8.352;2023-07-13T05:25:56;18.00;1.00
10536;DHT22;5316;49.538;8.352;2023-07-13T05:28:25;18.00;9.40
10536;DHT22;5316;49.538;8.352;2023-07-13T05:30:54;18.00;1.00
10536;DHT22;5316;49.538;8.352;2023-07-13T05:33:23;18.40;1.00
10536;DHT22;5316;49.538;8.352;2023-07-13T05:35:51;18.10;14.20
10536;DHT22;5316;49.538;8.352;2023-07-13T05:38:19;18.10;18.60
10536;DHT22;5316;49.538;8.352;2023-07-13T05:40:47;18.10;1.00
10536;DHT22;5316;49.538;8.352;2023-07-13T05:43:15;18.20;30.90
10536;DHT22;5316;49.538;8.352;2023-07-13T05:45:42;18.20;98.90
10536;DHT22;5316;49.538;8.352;2023-07-13T05:48:09;18.30;99.90
10536;DHT22;5316;49.538;8.352;2023-07-13T05:50:38;18.40;99.90
10536;DHT22;5316;49.538;8.352;2023-07-13T05:53:06;18.50;1.00
10536;DHT22;5316;49.538;8.352;2023-07-13T05:55:33;18.60;8.90
10536;DHT22;5316;49.538;8.352;2023-07-13T05:58:01;18.60;1.00
10536;DHT22;5316;49.538;8.352;2023-07-13T06:00:29;18.70;1.00
10536;DHT22;5316;49.538;8.352;2023-07-13T06:02:56;18.80;46.10
10536;DHT22;5316;49.538;8.352;2023-07-13T06:05:24;18.90;99.90
10536;DHT22;5316;49.538;8.352;2023-07-13T06:07:57;18.90;99.90
10536;DHT22;5316;49.538;8.352;2023-07-13T06:10:58;19.00;1.00
10536;DHT22;5316;49.538;8.352;2023-07-13T07:10:15;20.80;1.00
10536;DHT22;5316;49.538;8.352;2023-07-13T07:12:42;21.00;1.00
10536;DHT22;5316;49.538;8.352;2023-07-13T07:15:10;21.00;1.00
10536;DHT22;5316;49.538;8.352;2023-07-13T07:17:37;21.10;1.00
10536;DHT22;5316;49.538;8.352;2023-07-13T07:20:05;21.20;1.00
10536;DHT22;5316;49.538;8.352;2023-07-13T07:22:33;21.30;1.00
10536;DHT22;5316;49.538;8.352;2023-07-13T07:25:00;21.40;1.00
10536;DHT22;5316;49.538;8.352;2023-07-13T07:27:29;21.40;1.00
10536;DHT22;5316;49.538;8.352;2023-07-13T07:29:56;21.30;1.00
10536;DHT22;5316;49.538;8.352;2023-07-13T07:32:24;21.40;1.00
10536;DHT22;5316;49.538;8.352;2023-07-13T07:34:51;21.50;1.00
10536;DHT22;5316;49.538;8.352;2023-07-13T07:37:18;21.50;99.90
10536;DHT22;5316;49.538;8.352;2023-07-13T07:39:45;21.60;99.90
10536;DHT22;5316;49.538;8.352;2023-07-13T07:42:12;21.70;99.90
10536;DHT22;5316;49.538;8.352;2023-07-13T07:44:42;21.70;99.90
10536;DHT22;5316;49.538;8.352;2023-07-13T07:47:08;21.70;99.90
10536;DHT22;5316;49.538;8.352;2023-07-13T07:49:36;21.70;99.90
10536;DHT22;5316;49.538;8.352;2023-07-13T07:52:04;21.90;99.90
10536;DHT22;5316;49.538;8.352;2023-07-13T07:54:31;21.90;99.90
10536;DHT22;5316;49.538;8.352;2023-07-13T07:56:58;21.90;99.90
10536;DHT22;5316;49.538;8.352;2023-07-13T07:59:25;21.90;99.90
10536;DHT22;5316;49.538;8.352;2023-07-13T08:01:53;22.00;99.90
10536;DHT22;5316;49.538;8.352;2023-07-13T08:04:20;22.00;99.90
10536;DHT22;5316;49.538;8.352;2023-07-13T08:06:46;21.90;99.90
10536;DHT22;5316;49.538;8.352;2023-07-13T08:09:13;22.10;99.90
10536;DHT22;5316;49.538;8.352;2023-07-13T08:11:40;22.10;99.90
10536;DHT22;5316;49.538;8.352;2023-07-13T08:14:07;22.20;99.90
10536;DHT22;5316;49.538;8.352;2023-07-13T08:16:35;22.20;99.90
10536;DHT22;5316;49.538;8.352;2023-07-13T08:19:03;22.20;99.90
10536;DHT22;5316;49.538;8.352;2023-07-13T08:21:31;22.30;99.90
10536;DHT22;5316;49.538;8.352;2023-07-13T08:23:58;22.30;99.90
10536;DHT22;5316;49.538;8.352;2023-07-13T08:26:25;22.40;99.90
10536;DHT22;5316;49.538;8.352;2023-07-13T08:28:52;22.50;99.90
10536;DHT22;5316;49.538;8.352;2023-07-13T08:31:19;22.40;99.90
10536;DHT22;5316;49.538;8.352;2023-07-13T08:33:46;22.30;99.90
10536;DHT22;5316;49.538;8.352;2023-07-13T08:36:15;22.40;99.90
10536;DHT22;5316;49.538;8.352;2023-07-13T08:38:43;22.40;99.90
10536;DHT22;5316;49.538;8.352;2023-07-13T08:41:13;22.60;99.90
10536;DHT22;5316;49.538;8.352;2023-07-13T08:43:41;22.60;99.90
10536;DHT22;5316;49.538;8.352;2023-07-13T08:46:13;22.80;99.90
10536;DHT22;5316;49.538;8.352;2023-07-13T08:48:44;22.90;99.90
10536;DHT22;5316;49.538;8.352;2023-07-13T08:51:26;23.10;94.90
10536;DHT22;5316;49.538;8.352;2023-07-13T08:53:57;23.30;61.40
10536;DHT22;5316;49.538;8.352;2023-07-13T08:56:28;23.30;16.50
10536;DHT22;5316;49.538;8.352;2023-07-13T08:58:58;23.30;1.00
10536;DHT22;5316;49.538;8.352;2023-07-13T09:01:31;23.30;1.00
10536;DHT22;5316;49.538;8.352;2023-07-13T09:04:05;23.30;1.00
10536;DHT22;5316;49.538;8.352;2023-07-13T09:06:46;23.30;1.00
10536;DHT22;5316;49.538;8.352;2023-07-13T09:09:23;23.40;1.00
10536;DHT22;5316;49.538;8.352;2023-07-13T09:11:59;23.60;1.00
10536;DHT22;5316;49.538;8.352;2023-07-13T09:14:42;23.80;1.00
10536;DHT22;5316;49.538;8.352;2023-07-13T09:17:17;23.90;1.00
10536;DHT22;5316;49.538;8.352;2023-07-13T09:19:49;24.00;1.00
10536;DHT22;5316;49.538;8.352;2023-07-13T09:22:20;24.00;1.00
10536;DHT22;5316;49.538;8.352;2023-07-13T09:24:54;24.00;1.00
10536;DHT22;5316;49.538;8.352;2023-07-13T09:27:26;24.20;1.00
10536;DHT22;5316;49.538;8.352;2023-07-13T09:30:01;24.20;1.00
10536;DHT22;5316;49.538;8.352;2023-07-13T09:32:31;24.20;1.00
10536;DHT22;5316;49.538;8.352;2023-07-13T09:34:59;24.10;1.00
10536;DHT22;5316;49.538;8.352;2023-07-13T09:37:31;24.10;1.00
10536;DHT22;5316;49.538;8.352;2023-07-13T09:40:01;24.10;1.00
10536;DHT22;5316;49.538;8.352;2023-07-13T09:42:37;24.10;1.00
10536;DHT22;5316;49.538;8.352;2023-07-13T09:45:05;24.00;1.00
10536;DHT22;5316;49.538;8.352;2023-07-13T09:47:38;23.90;1.00
10536;DHT22;5316;49.538;8.352;2023-07-13T09:50:10;23.90;1.00
10536;DHT22;5316;49.538;8.352;2023-07-13T09:52:45;23.90;1.00
10536;DHT22;5316;49.538;8.352;2023-07-13T09:55:24;24.00;1.00
10536;DHT22;5316;49.538;8.352;2023-07-13T09:57:52;24.30;1.00
10536;DHT22;5316;49.538;8.352;2023-07-13T10:00:22;24.30;1.00
10536;DHT22;5316;49.538;8.352;2023-07-13T10:02:59;24.30;1.00
10536;DHT22;5316;49.538;8.352;2023-07-13T10:05:26;24.20;1.00
10536;DHT22;5316;49.538;8.352;2023-07-13T10:07:56;24.20;1.00
10536;DHT22;5316;49.538;8.352;2023-07-13T10:10:23;24.20;1.00
10536;DHT22;5316;49.538;8.352;2023-07-13T10:12:51;24.30;1.00
10536;DHT22;5316;49.538;8.352;2023-07-13T10:15:21;24.40;1.00
10536;DHT22;5316;49.538;8.352;2023-07-13T10:17:49;24.50;1.00
10536;DHT22;5316;49.538;8.352;2023-07-13T10:56:18;24.90;1.00
10536;DHT22;5316;49.538;8.352;2023-07-13T10:58:47;25.00;1.00
10536;DHT22;5316;49.538;8.352;2023-07-13T11:01:20;24.80;1.00
10536;DHT22;5316;49.538;8.352;2023-07-13T11:03:54;24.80;1.00
10536;DHT22;5316;49.538;8.352;2023-07-13T11:06:37;24.70;1.00
10536;DHT22;5316;49.538;8.352;2023-07-13T11:09:35;24.80;1.00
10536;DHT22;5316;49.538;8.352;2023-07-13T11:15:39;25.10;1.00
10536;DHT22;5316;49.538;8.352;2023-07-13T11:18:25;25.20;1.00
10536;DHT22;5316;49.538;8.352;2023-07-13T11:21:15;25.00;1.00
10536;DHT22;5316;49.538;8.352;2023-07-13T11:23:45;24.80;1.00
10536;DHT22;5316;49.538;8.352;2023-07-13T11:26:43;24.70;1.00
10536;DHT22;5316;49.538;8.352;2023-07-13T11:29:32;24.80;1.00
10536;DHT22;5316;49.538;8.352;2023-07-13T11:33:01;24.80;1.00
10536;DHT22;5316;49.538;8.352;2023-07-13T11:36:06;24.90;1.00
10536;DHT22;5316;49.538;8.352;2023-07-13T11:39:45;25.10;1.00
10536;DHT22;5316;49.538;8.352;2023-07-13T11:53:08;25.00;1.00
10536;DHT22;5316;49.538;8.352;2023-07-13T15:01:10;26.80;1.00
10536;DHT22;5316;49.538;8.352;2023-07-13T15:03:44;27.10;1.00
10536;DHT22;5316;49.538;8.352;2023-07-13T17:44:32;30.00;99.90
10536;DHT22;5316;49.538;8.352;2023-07-13T17:47:22;30.20;99.90
10536;DHT22;5316;49.538;8.352;2023-07-13T17:56:34;30.10;99.90
10536;DHT22;5316;49.538;8.352;2023-07-13T17:59:16;29.90;99.90
10536;DHT22;5316;49.538;8.352;2023-07-13T18:01:55;29.90;99.90
10536;DHT22;5316;49.538;8.352;2023-07-13T18:04:54;29.60;99.90
10536;DHT22;5316;49.538;8.352;2023-07-13T18:07:34;29.70;99.90
10536;DHT22;5316;49.538;8.352;2023-07-13T18:10:14;29.60;99.90
10536;DHT22;5316;49.538;8.352;2023-07-13T18:20:46;28.10;99.90
10536;DHT22;5316;49.538;8.352;2023-07-13T18:23:24;28.30;99.90
10536;DHT22;5316;49.538;8.352;2023-07-13T18:25:59;28.00;99.90
10536;DHT22;5316;49.538;8.352;2023-07-13T18:28:27;27.80;99.90
10536;DHT22;5316;49.538;8.352;2023-07-13T18:30:56;27.40;99.90
10536;DHT22;5316;49.538;8.352;2023-07-13T18:33:43;27.00;99.90
10536;DHT22;5316;49.538;8.352;2023-07-13T18:36:32;26.80;1.00
10536;DHT22;5316;49.538;8.352;2023-07-13T18:43:02;26.10;1.00
10536;DHT22;5316;49.538;8.352;2023-07-13T18:45:30;25.80;1.00
10536;DHT22;5316;49.538;8.352;2023-07-13T18:48:06;25.60;1.00
10536;DHT22;5316;49.538;8.352;2023-07-13T18:50:38;25.50;1.00
10536;DHT22;5316;49.538;8.352;2023-07-13T19:36:50;23.60;1.00
10536;DHT22;5316;49.538;8.352;2023-07-13T19:49:24;23.30;1.00
10536;DHT22;5316;49.538;8.352;2023-07-13T19:52:19;23.30;1.00
10536;DHT22;5316;49.538;8.352;2023-07-13T19:55:11;23.20;1.00
10536;DHT22;5316;49.538;8.352;2023-07-13T19:57:39;23.20;1.00
10536;DHT22;5316;49.538;8.352;2023-07-13T20:00:13;23.10;1.00
10536;DHT22;5316;49.538;8.352;2023-07-13T20:02:40;23.10;1.00
10536;DHT22;5316;49.538;8.352;2023-07-13T20:05:08;23.00;1.00
10536;DHT22;5316;49.538;8.352;2023-07-13T20:07:36;23.00;1.00
10536;DHT22;5316;49.538;8.352;2023-07-13T20:10:26;23.00;1.00
10536;DHT22;5316;49.538;8.352;2023-07-13T20:15:56;22.90;1.00
10536;DHT22;5316;49.538;8.352;2023-07-13T20:18:23;22.90;1.00
10536;DHT22;5316;49.538;8.352;2023-07-13T20:20:50;22.80;1.00
10536;DHT22;5316;49.538;8.352;2023-07-13T20:23:21;22.70;1.00
10536;DHT22;5316;49.538;8.352;2023-07-13T20:25:51;22.70;1.00
10536;DHT22;5316;49.538;8.352;2023-07-13T20:28:19;22.70;1.00
10536;DHT22;5316;49.538;8.352;2023-07-13T20:30:50;22.60;1.00
10536;DHT22;5316;49.538;8.352;2023-07-13T20:33:19;22.60;1.00
10536;DHT22;5316;49.538;8.352;2023-07-13T20:35:48;22.60;1.00
10536;DHT22;5316;49.538;8.352;2023-07-13T20:38:18;22.50;1.00
10536;DHT22;5316;49.538;8.352;2023-07-13T20:43:30;22.50;1.00
10536;DHT22;5316;49.538;8.352;2023-07-13T20:46:01;22.50;1.00
10536;DHT22;5316;49.538;8.352;2023-07-13T20:48:34;22.40;3.00
10536;DHT22;5316;49.538;8.352;2023-07-13T20:51:03;22.40;31.20
10536;DHT22;5316;49.538;8.352;2023-07-13T20:53:33;22.40;31.20
10536;DHT22;5316;49.538;8.352;2023-07-13T20:56:11;22.30;49.60
10536;DHT22;5316;49.538;8.352;2023-07-13T20:58:40;22.20;74.10
10536;DHT22;5316;49.538;8.352;2023-07-13T21:01:14;22.20;93.20
10536;DHT22;5316;49.538;8.352;2023-07-13T21:03:42;22.20;99.90
10536;DHT22;5316;49.538;8.352;2023-07-13T21:06:14;22.10;99.90
10536;DHT22;5316;49.538;8.352;2023-07-13T21:08:41;22.10;99.90
10536;DHT22;5316;49.538;8.352;2023-07-13T21:11:08;22.10;99.90
10536;DHT22;5316;49.538;8.352;2023-07-13T21:13:35;22.00;99.90
10536;DHT22;5316;49.538;8.352;2023-07-13T21:16:15;22.00;99.90
10536;DHT22;5316;49.538;8.352;2023-07-13T21:18:56;21.90;99.90
10536;DHT22;5316;49.538;8.352;2023-07-13T21:21:24;21.90;99.90
10536;DHT22;5316;49.538;8.352;2023-07-13T21:23:53;21.80;99.90
10536;DHT22;5316;49.538;8.352;2023-07-13T21:26:22;21.80;99.90
10536;DHT22;5316;49.538;8.352;2023-07-13T21:28:49;21.80;99.90
10536;DHT22;5316;49.538;8.352;2023-07-13T21:31:21;21.70;99.90
10536;DHT22;5316;49.538;8.352;2023-07-13T21:33:49;21.70;99.90
10536;DHT22;5316;49.538;8.352;2023-07-13T21:36:17;21.60;99.90
10536;DHT22;5316;49.538;8.352;2023-07-13T21:38:44;21.60;99.90
10536;DHT22;5316;49.538;8.352;2023-07-13T21:41:16;21.60;1.00
10536;DHT22;5316;49.538;8.352;2023-07-13T21:43:45;21.60;1.00
10536;DHT22;5316;49.538;8.352;2023-07-13T21:46:12;21.60;1.00
10536;DHT22;5316;49.538;8.352;2023-07-13T21:48:42;21.60;1.00
10536;DHT22;5316;49.538;8.352;2023-07-13T21:51:17;21.60;1.00
10536;DHT22;5316;49.538;8.352;2023-07-13T21:53:45;21.60;1.00
10536;DHT22;5316;49.538;8.352;2023-07-13T21:56:13;21.60;1.00
10536;DHT22;5316;49.538;8.352;2023-07-13T21:58:41;21.60;1.00
10536;DHT22;5316;49.538;8.352;2023-07-13T22:01:21;21.50;1.00
10536;DHT22;5316;49.538;8.352;2023-07-13T22:04:13;21.50;1.00
10536;DHT22;5316;49.538;8.352;2023-07-13T22:06:41;21.50;1.00
10536;DHT22;5316;49.538;8.352;2023-07-13T22:09:14;21.50;1.00
10536;DHT22;5316;49.538;8.352;2023-07-13T22:12:04;21.50;1.00
10536;DHT22;5316;49.538;8.352;2023-07-13T22:14:33;21.50;1.00
10536;DHT22;5316;49.538;8.352;2023-07-13T22:17:01;21.50;1.20
10536;DHT22;5316;49.538;8.352;2023-07-13T22:22:07;21.30;99.90
10536;DHT22;5316;49.538;8.352;2023-07-13T22:24:34;21.30;99.90
10536;DHT22;5316;49.538;8.352;2023-07-13T22:27:01;21.30;99.90
10536;DHT22;5316;49.538;8.352;2023-07-13T22:29:29;21.20;99.90
10536;DHT22;5316;49.538;8.352;2023-07-13T22:31:57;21.20;99.90
10536;DHT22;5316;49.538;8.352;2023-07-13T22:34:24;21.20;99.90
10536;DHT22;5316;49.538;8.352;2023-07-13T22:36:51;21.10;99.90
10536;DHT22;5316;49.538;8.352;2023-07-13T22:39:23;21.10;99.90
10536;DHT22;5316;49.538;8.352;2023-07-13T22:41:51;21.00;99.90
10536;DHT22;5316;49.538;8.352;2023-07-13T22:44:20;21.00;99.90
10536;DHT22;5316;49.538;8.352;2023-07-13T22:46:47;21.00;99.90
10536;DHT22;5316;49.538;8.352;2023-07-13T22:49:21;20.90;99.90
10536;DHT22;5316;49.538;8.352;2023-07-13T22:51:50;21.00;99.90
10536;DHT22;5316;49.538;8.352;2023-07-13T22:54:17;20.90;99.90
10536;DHT22;5316;49.538;8.352;2023-07-13T22:56:46;20.90;99.90
10536;DHT22;5316;49.538;8.352;2023-07-13T22:59:12;20.90;99.90
10536;DHT22;5316;49.538;8.352;2023-07-13T23:01:40;21.00;99.90
10536;DHT22;5316;49.538;8.352;2023-07-13T23:04:15;20.90;99.90
10536;DHT22;5316;49.538;8.352;2023-07-13T23:06:43;21.00;99.90
10536;DHT22;5316;49.538;8.352;2023-07-13T23:09:13;21.00;99.90
10536;DHT22;5316;49.538;8.352;2023-07-13T23:11:40;21.00;94.10
10536;DHT22;5316;49.538;8.352;2023-07-13T23:14:08;21.00;92.90
10536;DHT22;5316;49.538;8.352;2023-07-13T23:16:35;21.00;99.90
10536;DHT22;5316;49.538;8.352;2023-07-13T23:19:02;20.90;99.90
10536;DHT22;5316;49.538;8.352;2023-07-13T23:21:30;20.80;99.90
10536;DHT22;5316;49.538;8.352;2023-07-13T23:23:57;20.80;99.90
10536;DHT22;5316;49.538;8.352;2023-07-13T23:26:25;20.80;99.90
10536;DHT22;5316;49.538;8.352;2023-07-13T23:28:52;20.80;99.90
10536;DHT22;5316;49.538;8.352;2023-07-13T23:31:23;20.70;99.90
10536;DHT22;5316;49.538;8.352;2023-07-13T23:33:51;20.70;99.90
10536;DHT22;5316;49.538;8.352;2023-07-13T23:36:19;20.70;99.90
10536;DHT22;5316;49.538;8.352;2023-07-13T23:38:46;20.60;99.90
10536;DHT22;5316;49.538;8.352;2023-07-13T23:41:14;20.70;1.00
10536;DHT22;5316;49.538;8.352;2023-07-13T23:43:41;20.60;1.00
10536;DHT22;5316;49.538;8.352;2023-07-13T23:46:22;20.60;1.00
10536;DHT22;5316;49.538;8.352;2023-07-13T23:48:59;20.60;1.00
10536;DHT22;5316;49.538;8.352;2023-07-13T23:51:27;20.70;1.00
10536;DHT22;5316;49.538;8.352;2023-07-13T23:53:54;20.70;1.00
10536;DHT22;5316;49.538;8.352;2023-07-13T23:56:22;20.80;1.00
10536;DHT22;5316;49.538;8.352;2023-07-13T23:58:50;20.80;1.00
